sensor_id;sensor_type;location;lat;lon;timestamp;temperature;humidity
66831;DHT22;53739;44.224;22.528;2022-11-06T00:01:08;409.80;2355.20
66831;DHT22;53739;44.224;22.528;2022-11-06T00:03:35;409.80;2355.20
66831;DHT22;53739;44.224;22.528;2022-11-06T00:06:08;409.80;2355.20
66831;DHT22;53739;44.224;22.528;2022-11-06T00:08:53;409.80;2355.20
66831;DHT22;53739;44.224;22.528;2022-11-06T00:11:19;409.80;2355.20
66831;DHT22;53739;44.224;22.528;2022-11-06T00:13:45;409.90;2329.60
66831;DHT22;53739;44.224;22.528;2022-11-06T00:16:13;409.90;2201.60
66831;DHT22;53739;44.224;22.528;2022-11-06T00:18:40;409.90;2099.20
66831;DHT22;53739;44.224;22.528;2022-11-06T00:21:11;409.90;2329.60
66831;DHT22;53739;44.224;22.528;2022-11-06T00:23:38;409.90;2355.20
66831;DHT22;53739;44.224;22.528;2022-11-06T00:26:15;409.90;2355.20
66831;DHT22;53739;44.224;22.528;2022-11-06T00:28:42;409.90;2355.20
66831;DHT22;53739;44.224;22.528;2022-11-06T00:31:11;409.90;2329.60
66831;DHT22;53739;44.224;22.528;2022-11-06T00:33:37;409.90;2124.80
66831;DHT22;53739;44.224;22.528;2022-11-06T00:36:04;409.90;2227.20
66831;DHT22;53739;44.224;22.528;2022-11-06T00:38:31;409.90;2099.20
66831;DHT22;53739;44.224;22.528;2022-11-06T00:41:00;409.90;2227.20
66831;DHT22;53739;44.224;22.528;2022-11-06T00:43:26;409.90;2073.60
66831;DHT22;53739;44.224;22.528;2022-11-06T00:45:51;409.90;2150.40
66831;DHT22;53739;44.224;22.528;2022-11-06T00:48:17;409.90;1996.80
66831;DHT22;53739;44.224;22.528;2022-11-06T00:50:43;409.90;2355.20
66831;DHT22;53739;44.224;22.528;2022-11-06T00:53:09;409.90;2150.40
66831;DHT22;53739;44.224;22.528;2022-11-06T00:55:34;409.90;2355.20
66831;DHT22;53739;44.224;22.528;2022-11-06T00:58:00;409.90;2124.80
66831;DHT22;53739;44.224;22.528;2022-11-06T01:00:26;409.90;2329.60
66831;DHT22;53739;44.224;22.528;2022-11-06T01:02:52;409.90;2073.60
66831;DHT22;53739;44.224;22.528;2022-11-06T01:05:20;409.90;2099.20
66831;DHT22;53739;44.224;22.528;2022-11-06T01:07:46;409.90;2048.00
66831;DHT22;53739;44.224;22.528;2022-11-06T01:10:11;409.90;2048.00
66831;DHT22;53739;44.224;22.528;2022-11-06T01:12:37;409.90;2150.40
66831;DHT22;53739;44.224;22.528;2022-11-06T01:15:03;409.90;2304.00
66831;DHT22;53739;44.224;22.528;2022-11-06T01:17:29;409.90;2099.20
66831;DHT22;53739;44.224;22.528;2022-11-06T01:19:55;409.90;2150.40
66831;DHT22;53739;44.224;22.528;2022-11-06T01:22:21;409.90;1971.20
66831;DHT22;53739;44.224;22.528;2022-11-06T01:24:47;409.90;1996.80
66831;DHT22;53739;44.224;22.528;2022-11-06T01:27:12;409.90;2355.20
66831;DHT22;53739;44.224;22.528;2022-11-06T01:29:38;409.90;2355.20
66831;DHT22;53739;44.224;22.528;2022-11-06T01:32:04;409.90;2048.00
66831;DHT22;53739;44.224;22.528;2022-11-06T01:34:30;409.80;2355.20
66831;DHT22;53739;44.224;22.528;2022-11-06T01:36:56;409.90;2355.20
66831;DHT22;53739;44.224;22.528;2022-11-06T01:39:22;409.90;2355.20
66831;DHT22;53739;44.224;22.528;2022-11-06T01:41:51;409.90;2355.20
66831;DHT22;53739;44.224;22.528;2022-11-06T01:47:26;409.90;2355.20
66831;DHT22;53739;44.224;22.528;2022-11-06T01:49:57;409.80;2048.00
66831;DHT22;53739;44.224;22.528;2022-11-06T01:52:24;409.80;2022.40
66831;DHT22;53739;44.224;22.528;2022-11-06T01:54:55;409.80;2355.20
66831;DHT22;53739;44.224;22.528;2022-11-06T01:57:21;409.90;2355.20
66831;DHT22;53739;44.224;22.528;2022-11-06T01:59:49;409.90;2355.20
66831;DHT22;53739;44.224;22.528;2022-11-06T02:02:16;409.90;2355.20
66831;DHT22;53739;44.224;22.528;2022-11-06T02:04:47;409.90;2355.20
66831;DHT22;53739;44.224;22.528;2022-11-06T02:07:14;409.90;2355.20
66831;DHT22;53739;44.224;22.528;2022-11-06T02:09:41;409.90;2355.20
66831;DHT22;53739;44.224;22.528;2022-11-06T02:12:17;409.90;2355.20
66831;DHT22;53739;44.224;22.528;2022-11-06T02:14:58;409.90;2355.20
66831;DHT22;53739;44.224;22.528;2022-11-06T02:20:05;409.90;2355.20
66831;DHT22;53739;44.224;22.528;2022-11-06T02:27:53;410.00;2355.20
66831;DHT22;53739;44.224;22.528;2022-11-06T02:30:22;410.00;2355.20
66831;DHT22;53739;44.224;22.528;2022-11-06T02:32:59;410.00;2355.20
66831;DHT22;53739;44.224;22.528;2022-11-06T02:38:29;409.90;2355.20
66831;DHT22;53739;44.224;22.528;2022-11-06T02:40:59;410.00;2355.20
66831;DHT22;53739;44.224;22.528;2022-11-06T02:43:31;409.90;2355.20
66831;DHT22;53739;44.224;22.528;2022-11-06T02:46:06;410.00;2355.20
66831;DHT22;53739;44.224;22.528;2022-11-06T02:48:38;410.00;2355.20
66831;DHT22;53739;44.224;22.528;2022-11-06T02:51:08;410.00;2355.20
66831;DHT22;53739;44.224;22.528;2022-11-06T02:53:36;410.00;2355.20
66831;DHT22;53739;44.224;22.528;2022-11-06T02:56:09;410.00;2355.20
66831;DHT22;53739;44.224;22.528;2022-11-06T03:01:47;409.90;2355.20
66831;DHT22;53739;44.224;22.528;2022-11-06T03:04:36;409.90;2355.20
66831;DHT22;53739;44.224;22.528;2022-11-06T03:09:49;410.00;2355.20
66831;DHT22;53739;44.224;22.528;2022-11-06T03:12:19;409.90;2355.20
66831;DHT22;53739;44.224;22.528;2022-11-06T03:14:58;409.90;2355.20
66831;DHT22;53739;44.224;22.528;2022-11-06T03:21:05;410.00;2355.20
66831;DHT22;53739;44.224;22.528;2022-11-06T03:23:49;409.90;2355.20
66831;DHT22;53739;44.224;22.528;2022-11-06T03:26:26;409.90;2355.20
66831;DHT22;53739;44.224;22.528;2022-11-06T03:29:06;409.90;2355.20
66831;DHT22;53739;44.224;22.528;2022-11-06T03:31:36;409.90;2355.20
66831;DHT22;53739;44.224;22.528;2022-11-06T03:34:08;409.90;2355.20
66831;DHT22;53739;44.224;22.528;2022-11-06T03:36:41;409.90;2355.20
66831;DHT22;53739;44.224;22.528;2022-11-06T03:39:14;409.90;2355.20
66831;DHT22;53739;44.224;22.528;2022-11-06T03:41:48;409.90;2355.20
66831;DHT22;53739;44.224;22.528;2022-11-06T03:44:18;409.90;2355.20
66831;DHT22;53739;44.224;22.528;2022-11-06T03:46:49;409.90;2355.20
66831;DHT22;53739;44.224;22.528;2022-11-06T03:49:23;409.90;2355.20
66831;DHT22;53739;44.224;22.528;2022-11-06T03:51:57;409.90;2355.20
66831;DHT22;53739;44.224;22.528;2022-11-06T03:54:33;409.90;2355.20
66831;DHT22;53739;44.224;22.528;2022-11-06T03:57:10;409.90;2355.20
66831;DHT22;53739;44.224;22.528;2022-11-06T03:59:50;409.90;2355.20
66831;DHT22;53739;44.224;22.528;2022-11-06T04:02:18;410.00;2355.20
66831;DHT22;53739;44.224;22.528;2022-11-06T04:04:55;409.90;2355.20
66831;DHT22;53739;44.224;22.528;2022-11-06T04:07:39;409.90;2355.20
66831;DHT22;53739;44.224;22.528;2022-11-06T04:10:09;410.00;2355.20
66831;DHT22;53739;44.224;22.528;2022-11-06T04:12:56;410.00;2355.20
66831;DHT22;53739;44.224;22.528;2022-11-06T04:15:49;409.90;2355.20
66831;DHT22;53739;44.224;22.528;2022-11-06T04:18:17;410.00;2355.20
66831;DHT22;53739;44.224;22.528;2022-11-06T04:24:20;409.90;2355.20
66831;DHT22;53739;44.224;22.528;2022-11-06T04:30:16;409.90;2355.20
66831;DHT22;53739;44.224;22.528;2022-11-06T04:32:51;409.90;2355.20
66831;DHT22;53739;44.224;22.528;2022-11-06T04:36:15;409.90;2355.20
66831;DHT22;53739;44.224;22.528;2022-11-06T04:44:49;409.90;2355.20
66831;DHT22;53739;44.224;22.528;2022-11-06T04:47:19;409.90;2355.20
66831;DHT22;53739;44.224;22.528;2022-11-06T04:49:48;409.90;2355.20
66831;DHT22;53739;44.224;22.528;2022-11-06T04:52:19;409.90;2355.20
66831;DHT22;53739;44.224;22.528;2022-11-06T04:54:46;409.90;2355.20
66831;DHT22;53739;44.224;22.528;2022-11-06T04:57:12;409.90;2355.20
66831;DHT22;53739;44.224;22.528;2022-11-06T04:59:38;409.90;2355.20
66831;DHT22;53739;44.224;22.528;2022-11-06T05:02:04;410.00;2355.20
66831;DHT22;53739;44.224;22.528;2022-11-06T05:04:31;409.90;2355.20
66831;DHT22;53739;44.224;22.528;2022-11-06T05:06:57;410.00;2355.20
66831;DHT22;53739;44.224;22.528;2022-11-06T05:09:23;410.00;2355.20
66831;DHT22;53739;44.224;22.528;2022-11-06T05:11:49;410.00;2355.20
66831;DHT22;53739;44.224;22.528;2022-11-06T05:14:15;410.00;2355.20
66831;DHT22;53739;44.224;22.528;2022-11-06T05:16:41;409.90;2355.20
66831;DHT22;53739;44.224;22.528;2022-11-06T05:19:07;410.00;2355.20
66831;DHT22;53739;44.224;22.528;2022-11-06T05:21:33;410.00;2355.20
66831;DHT22;53739;44.224;22.528;2022-11-06T05:24:18;410.00;2355.20
66831;DHT22;53739;44.224;22.528;2022-11-06T05:26:44;410.00;2355.20
66831;DHT22;53739;44.224;22.528;2022-11-06T05:29:11;410.00;2355.20
66831;DHT22;53739;44.224;22.528;2022-11-06T05:31:37;409.90;2355.20
66831;DHT22;53739;44.224;22.528;2022-11-06T05:34:03;409.90;2355.20
66831;DHT22;53739;44.224;22.528;2022-11-06T05:36:29;410.00;2355.20
66831;DHT22;53739;44.224;22.528;2022-11-06T05:38:55;409.90;2355.20
66831;DHT22;53739;44.224;22.528;2022-11-06T05:41:21;410.00;2355.20
66831;DHT22;53739;44.224;22.528;2022-11-06T05:43:46;409.90;2355.20
66831;DHT22;53739;44.224;22.528;2022-11-06T05:46:12;409.90;2355.20
66831;DHT22;53739;44.224;22.528;2022-11-06T05:48:38;409.90;2355.20
66831;DHT22;53739;44.224;22.528;2022-11-06T05:51:06;409.90;2355.20
66831;DHT22;53739;44.224;22.528;2022-11-06T05:53:34;409.90;2355.20
66831;DHT22;53739;44.224;22.528;2022-11-06T05:56:00;409.90;2355.20
66831;DHT22;53739;44.224;22.528;2022-11-06T05:58:27;409.90;2355.20
66831;DHT22;53739;44.224;22.528;2022-11-06T06:00:54;409.90;2355.20
66831;DHT22;53739;44.224;22.528;2022-11-06T06:03:20;409.90;2355.20
66831;DHT22;53739;44.224;22.528;2022-11-06T06:05:46;409.90;2355.20
66831;DHT22;53739;44.224;22.528;2022-11-06T06:08:12;409.90;2355.20
66831;DHT22;53739;44.224;22.528;2022-11-06T06:10:45;409.90;2355.20
66831;DHT22;53739;44.224;22.528;2022-11-06T06:13:11;409.90;2355.20
66831;DHT22;53739;44.224;22.528;2022-11-06T06:15:38;409.90;2355.20
66831;DHT22;53739;44.224;22.528;2022-11-06T06:18:06;409.90;2355.20
66831;DHT22;53739;44.224;22.528;2022-11-06T06:20:32;409.90;2355.20
66831;DHT22;53739;44.224;22.528;2022-11-06T06:22:58;409.90;2355.20
66831;DHT22;53739;44.224;22.528;2022-11-06T06:25:25;410.00;2355.20
66831;DHT22;53739;44.224;22.528;2022-11-06T06:27:51;409.90;2355.20
66831;DHT22;53739;44.224;22.528;2022-11-06T06:30:17;409.90;2355.20
66831;DHT22;53739;44.224;22.528;2022-11-06T06:32:43;409.90;2355.20
66831;DHT22;53739;44.224;22.528;2022-11-06T06:35:10;409.90;2355.20
66831;DHT22;53739;44.224;22.528;2022-11-06T06:37:35;409.90;2355.20
66831;DHT22;53739;44.224;22.528;2022-11-06T06:40:02;410.00;2355.20
66831;DHT22;53739;44.224;22.528;2022-11-06T06:42:28;410.00;2355.20
66831;DHT22;53739;44.224;22.528;2022-11-06T06:44:54;410.00;2355.20
66831;DHT22;53739;44.224;22.528;2022-11-06T06:47:20;410.00;2355.20
66831;DHT22;53739;44.224;22.528;2022-11-06T06:49:46;410.00;2355.20
66831;DHT22;53739;44.224;22.528;2022-11-06T06:52:11;410.00;2355.20
66831;DHT22;53739;44.224;22.528;2022-11-06T06:54:37;410.00;2355.20
66831;DHT22;53739;44.224;22.528;2022-11-06T06:57:06;410.10;2355.20
66831;DHT22;53739;44.224;22.528;2022-11-06T06:59:32;410.10;2355.20
66831;DHT22;53739;44.224;22.528;2022-11-06T07:01:58;410.10;2355.20
66831;DHT22;53739;44.224;22.528;2022-11-06T07:04:24;410.20;2355.20
66831;DHT22;53739;44.224;22.528;2022-11-06T07:06:52;410.20;2355.20
66831;DHT22;53739;44.224;22.528;2022-11-06T07:09:19;410.20;2355.20
66831;DHT22;53739;44.224;22.528;2022-11-06T07:11:45;410.20;2355.20
66831;DHT22;53739;44.224;22.528;2022-11-06T07:14:10;410.20;2355.20
66831;DHT22;53739;44.224;22.528;2022-11-06T07:16:36;410.30;2355.20
66831;DHT22;53739;44.224;22.528;2022-11-06T07:19:02;410.30;2355.20
66831;DHT22;53739;44.224;22.528;2022-11-06T07:21:28;410.40;2355.20
66831;DHT22;53739;44.224;22.528;2022-11-06T07:23:54;410.40;2355.20
66831;DHT22;53739;44.224;22.528;2022-11-06T07:26:19;410.50;2355.20
66831;DHT22;53739;44.224;22.528;2022-11-06T07:28:45;410.50;2355.20
66831;DHT22;53739;44.224;22.528;2022-11-06T07:31:11;410.50;2355.20
66831;DHT22;53739;44.224;22.528;2022-11-06T07:33:37;410.50;2355.20
66831;DHT22;53739;44.224;22.528;2022-11-06T07:36:12;410.50;2355.20
66831;DHT22;53739;44.224;22.528;2022-11-06T07:38:40;410.50;2355.20
66831;DHT22;53739;44.224;22.528;2022-11-06T07:41:12;410.50;2355.20
66831;DHT22;53739;44.224;22.528;2022-11-06T07:43:39;410.50;2355.20
66831;DHT22;53739;44.224;22.528;2022-11-06T07:46:06;410.50;2355.20
66831;DHT22;53739;44.224;22.528;2022-11-06T07:48:33;435.20;2355.20
66831;DHT22;53739;44.224;22.528;2022-11-06T07:51:05;435.20;2355.20
66831;DHT22;53739;44.224;22.528;2022-11-06T07:53:31;435.20;2355.20
66831;DHT22;53739;44.224;22.528;2022-11-06T07:55:57;435.20;2355.20
66831;DHT22;53739;44.224;22.528;2022-11-06T07:58:23;435.20;2355.20
66831;DHT22;53739;44.224;22.528;2022-11-06T08:00:51;435.20;2355.20
66831;DHT22;53739;44.224;22.528;2022-11-06T08:03:18;435.20;2355.20
66831;DHT22;53739;44.224;22.528;2022-11-06T08:05:44;435.20;2355.20
66831;DHT22;53739;44.224;22.528;2022-11-06T08:08:10;435.20;2355.20
66831;DHT22;53739;44.224;22.528;2022-11-06T08:10:37;435.20;2355.20
66831;DHT22;53739;44.224;22.528;2022-11-06T08:13:05;435.20;2355.20
66831;DHT22;53739;44.224;22.528;2022-11-06T08:15:32;435.30;2355.20
66831;DHT22;53739;44.224;22.528;2022-11-06T08:17:59;435.30;2355.20
66831;DHT22;53739;44.224;22.528;2022-11-06T08:20:25;410.50;2355.20
66831;DHT22;53739;44.224;22.528;2022-11-06T08:22:50;435.30;2355.20
66831;DHT22;53739;44.224;22.528;2022-11-06T08:25:16;435.30;2355.20
66831;DHT22;53739;44.224;22.528;2022-11-06T08:27:42;435.30;2355.20
66831;DHT22;53739;44.224;22.528;2022-11-06T08:30:09;435.30;2355.20
66831;DHT22;53739;44.224;22.528;2022-11-06T08:32:35;435.30;2355.20
66831;DHT22;53739;44.224;22.528;2022-11-06T08:35:00;435.30;2355.20
66831;DHT22;53739;44.224;22.528;2022-11-06T08:37:26;435.40;2355.20
66831;DHT22;53739;44.224;22.528;2022-11-06T08:39:52;435.30;2355.20
66831;DHT22;53739;44.224;22.528;2022-11-06T08:42:18;435.30;2355.20
66831;DHT22;53739;44.224;22.528;2022-11-06T08:44:43;435.40;2355.20
66831;DHT22;53739;44.224;22.528;2022-11-06T08:47:09;435.50;2355.20
66831;DHT22;53739;44.224;22.528;2022-11-06T08:49:35;435.50;2355.20
66831;DHT22;53739;44.224;22.528;2022-11-06T08:52:01;435.50;2355.20
66831;DHT22;53739;44.224;22.528;2022-11-06T08:54:26;435.50;2355.20
66831;DHT22;53739;44.224;22.528;2022-11-06T08:56:52;435.50;2355.20
66831;DHT22;53739;44.224;22.528;2022-11-06T08:59:18;435.60;2355.20
66831;DHT22;53739;44.224;22.528;2022-11-06T09:01:44;435.70;2355.20
66831;DHT22;53739;44.224;22.528;2022-11-06T09:04:09;435.70;2355.20
66831;DHT22;53739;44.224;22.528;2022-11-06T09:06:35;435.70;2355.20
66831;DHT22;53739;44.224;22.528;2022-11-06T09:09:01;435.70;2355.20
66831;DHT22;53739;44.224;22.528;2022-11-06T09:11:27;435.70;2355.20
66831;DHT22;53739;44.224;22.528;2022-11-06T09:13:53;435.70;2355.20
66831;DHT22;53739;44.224;22.528;2022-11-06T09:16:19;435.70;2355.20
66831;DHT22;53739;44.224;22.528;2022-11-06T09:18:44;435.70;2355.20
66831;DHT22;53739;44.224;22.528;2022-11-06T09:21:10;435.70;2355.20
66831;DHT22;53739;44.224;22.528;2022-11-06T09:23:36;435.70;2355.20
66831;DHT22;53739;44.224;22.528;2022-11-06T09:26:02;435.70;2355.20
66831;DHT22;53739;44.224;22.528;2022-11-06T09:28:28;435.70;2355.20
66831;DHT22;53739;44.224;22.528;2022-11-06T09:30:54;435.70;2355.20
66831;DHT22;53739;44.224;22.528;2022-11-06T09:33:20;435.80;2355.20
66831;DHT22;53739;44.224;22.528;2022-11-06T09:35:46;435.70;2355.20
66831;DHT22;53739;44.224;22.528;2022-11-06T09:38:12;435.70;2355.20
66831;DHT22;53739;44.224;22.528;2022-11-06T09:43:36;435.80;2355.20
66831;DHT22;53739;44.224;22.528;2022-11-06T09:46:25;435.80;2355.20
66831;DHT22;53739;44.224;22.528;2022-11-06T09:55:21;436.00;2355.20
66831;DHT22;53739;44.224;22.528;2022-11-06T10:00:40;436.10;2355.20
66831;DHT22;53739;44.224;22.528;2022-11-06T10:03:21;436.00;2355.20
66831;DHT22;53739;44.224;22.528;2022-11-06T10:05:51;436.10;2355.20
66831;DHT22;53739;44.224;22.528;2022-11-06T10:08:25;460.80;2380.80
66831;DHT22;53739;44.224;22.528;2022-11-06T10:11:29;460.80;2380.80
66831;DHT22;53739;44.224;22.528;2022-11-06T10:17:05;460.80;2380.80
66831;DHT22;53739;44.224;22.528;2022-11-06T10:19:53;460.80;2380.80
66831;DHT22;53739;44.224;22.528;2022-11-06T10:22:31;460.80;2380.80
66831;DHT22;53739;44.224;22.528;2022-11-06T10:30:22;460.80;2380.80
66831;DHT22;53739;44.224;22.528;2022-11-06T10:33:31;460.80;2380.80
66831;DHT22;53739;44.224;22.528;2022-11-06T10:36:06;460.80;2380.80
66831;DHT22;53739;44.224;22.528;2022-11-06T10:38:37;460.80;2380.80
66831;DHT22;53739;44.224;22.528;2022-11-06T10:41:03;460.80;2380.80
66831;DHT22;53739;44.224;22.528;2022-11-06T10:43:48;460.80;2380.80
66831;DHT22;53739;44.224;22.528;2022-11-06T10:46:34;460.80;2380.80
66831;DHT22;53739;44.224;22.528;2022-11-06T10:51:57;460.80;2380.80
66831;DHT22;53739;44.224;22.528;2022-11-06T10:59:57;460.90;2380.80
66831;DHT22;53739;44.224;22.528;2022-11-06T11:02:30;460.80;2380.80
66831;DHT22;53739;44.224;22.528;2022-11-06T11:04:57;460.90;2380.80
66831;DHT22;53739;44.224;22.528;2022-11-06T11:07:23;460.90;2380.80
66831;DHT22;53739;44.224;22.528;2022-11-06T11:09:50;460.90;2380.80
66831;DHT22;53739;44.224;22.528;2022-11-06T11:12:34;461.00;2380.80
66831;DHT22;53739;44.224;22.528;2022-11-06T11:15:12;461.00;2380.80
66831;DHT22;53739;44.224;22.528;2022-11-06T11:17:40;461.00;2380.80
66831;DHT22;53739;44.224;22.528;2022-11-06T11:20:32;461.00;2380.80
66831;DHT22;53739;44.224;22.528;2022-11-06T11:25:45;461.10;2380.80
66831;DHT22;53739;44.224;22.528;2022-11-06T11:28:33;461.00;2380.80
66831;DHT22;53739;44.224;22.528;2022-11-06T11:31:07;461.00;2380.80
66831;DHT22;53739;44.224;22.528;2022-11-06T11:33:34;461.00;2380.80
66831;DHT22;53739;44.224;22.528;2022-11-06T11:36:04;461.00;2380.80
66831;DHT22;53739;44.224;22.528;2022-11-06T11:38:39;461.10;2380.80
66831;DHT22;53739;44.224;22.528;2022-11-06T11:41:11;461.10;2380.80
66831;DHT22;53739;44.224;22.528;2022-11-06T11:43:37;461.10;2380.80
66831;DHT22;53739;44.224;22.528;2022-11-06T11:48:56;461.00;2380.80
66831;DHT22;53739;44.224;22.528;2022-11-06T11:51:39;461.00;2380.80
66831;DHT22;53739;44.224;22.528;2022-11-06T11:54:15;461.00;2380.80
66831;DHT22;53739;44.224;22.528;2022-11-06T11:56:56;461.10;2380.80
66831;DHT22;53739;44.224;22.528;2022-11-06T12:00:15;461.10;2380.80
66831;DHT22;53739;44.224;22.528;2022-11-06T12:02:21;461.00;2380.80
66831;DHT22;53739;44.224;22.528;2022-11-06T12:04:56;461.10;2380.80
66831;DHT22;53739;44.224;22.528;2022-11-06T12:07:29;461.10;2380.80
66831;DHT22;53739;44.224;22.528;2022-11-06T12:09:56;461.10;2380.80
66831;DHT22;53739;44.224;22.528;2022-11-06T12:12:29;461.10;2380.80
66831;DHT22;53739;44.224;22.528;2022-11-06T12:15:24;461.10;2380.80
66831;DHT22;53739;44.224;22.528;2022-11-06T12:18:00;461.10;2380.80
66831;DHT22;53739;44.224;22.528;2022-11-06T12:23:41;461.10;2380.80
66831;DHT22;53739;44.224;22.528;2022-11-06T12:26:25;461.10;2380.80
66831;DHT22;53739;44.224;22.528;2022-11-06T12:28:58;461.10;2380.80
66831;DHT22;53739;44.224;22.528;2022-11-06T12:31:31;461.10;2380.80
66831;DHT22;53739;44.224;22.528;2022-11-06T12:34:01;461.10;2380.80
66831;DHT22;53739;44.224;22.528;2022-11-06T12:36:30;461.10;2380.80
66831;DHT22;53739;44.224;22.528;2022-11-06T12:39:04;461.20;2380.80
66831;DHT22;53739;44.224;22.528;2022-11-06T12:41:43;461.20;2380.80
66831;DHT22;53739;44.224;22.528;2022-11-06T12:44:12;461.20;2380.80
66831;DHT22;53739;44.224;22.528;2022-11-06T12:47:17;461.20;2380.80
66831;DHT22;53739;44.224;22.528;2022-11-06T12:52:38;461.20;2380.80
66831;DHT22;53739;44.224;22.528;2022-11-06T12:55:14;461.20;2380.80
66831;DHT22;53739;44.224;22.528;2022-11-06T12:58:03;461.20;2380.80
66831;DHT22;53739;44.224;22.528;2022-11-06T13:00:56;461.20;2380.80
66831;DHT22;53739;44.224;22.528;2022-11-06T13:06:48;461.30;2380.80
66831;DHT22;53739;44.224;22.528;2022-11-06T13:19:50;461.30;2380.80
66831;DHT22;53739;44.224;22.528;2022-11-06T13:22:39;461.30;2380.80
66831;DHT22;53739;44.224;22.528;2022-11-06T13:25:21;461.30;2380.80
66831;DHT22;53739;44.224;22.528;2022-11-06T13:27:59;461.30;2380.80
66831;DHT22;53739;44.224;22.528;2022-11-06T13:30:29;461.30;2380.80
66831;DHT22;53739;44.224;22.528;2022-11-06T13:33:26;461.30;2380.80
66831;DHT22;53739;44.224;22.528;2022-11-06T13:35:50;461.30;2380.80
66831;DHT22;53739;44.224;22.528;2022-11-06T13:38:28;461.30;2380.80
66831;DHT22;53739;44.224;22.528;2022-11-06T13:41:05;461.30;2380.80
66831;DHT22;53739;44.224;22.528;2022-11-06T13:43:41;461.30;2380.80
66831;DHT22;53739;44.224;22.528;2022-11-06T13:51:39;461.30;2380.80
66831;DHT22;53739;44.224;22.528;2022-11-06T13:54:26;461.30;2380.80
66831;DHT22;53739;44.224;22.528;2022-11-06T14:08:02;461.30;2380.80
66831;DHT22;53739;44.224;22.528;2022-11-06T14:10:34;461.30;2380.80
66831;DHT22;53739;44.224;22.528;2022-11-06T14:13:02;461.30;2380.80
66831;DHT22;53739;44.224;22.528;2022-11-06T14:15:37;461.30;2380.80
66831;DHT22;53739;44.224;22.528;2022-11-06T14:18:13;461.30;2380.80
66831;DHT22;53739;44.224;22.528;2022-11-06T14:20:44;461.30;2380.80
66831;DHT22;53739;44.224;22.528;2022-11-06T14:26:09;461.20;2380.80
66831;DHT22;53739;44.224;22.528;2022-11-06T14:28:41;461.20;2380.80
66831;DHT22;53739;44.224;22.528;2022-11-06T14:31:08;461.10;2380.80
66831;DHT22;53739;44.224;22.528;2022-11-06T14:36:25;461.10;2380.80
66831;DHT22;53739;44.224;22.528;2022-11-06T14:38:52;461.10;2380.80
66831;DHT22;53739;44.224;22.528;2022-11-06T14:44:19;461.10;2380.80
66831;DHT22;53739;44.224;22.528;2022-11-06T14:46:55;461.10;2380.80
66831;DHT22;53739;44.224;22.528;2022-11-06T14:49:32;461.10;2380.80
66831;DHT22;53739;44.224;22.528;2022-11-06T14:52:11;461.10;2380.80
66831;DHT22;53739;44.224;22.528;2022-11-06T14:54:40;461.10;2380.80
66831;DHT22;53739;44.224;22.528;2022-11-06T14:57:10;461.10;2380.80
66831;DHT22;53739;44.224;22.528;2022-11-06T14:59:40;461.10;2380.80
66831;DHT22;53739;44.224;22.528;2022-11-06T15:02:27;461.10;2380.80
66831;DHT22;53739;44.224;22.528;2022-11-06T15:05:04;461.00;2380.80
66831;DHT22;53739;44.224;22.528;2022-11-06T15:07:34;461.00;2380.80
66831;DHT22;53739;44.224;22.528;2022-11-06T15:15:44;460.80;2380.80
66831;DHT22;53739;44.224;22.528;2022-11-06T15:18:16;460.80;2380.80
66831;DHT22;53739;44.224;22.528;2022-11-06T15:20:53;460.80;2380.80
66831;DHT22;53739;44.224;22.528;2022-11-06T15:23:40;436.10;2355.20
66831;DHT22;53739;44.224;22.528;2022-11-06T15:26:22;436.10;2355.20
66831;DHT22;53739;44.224;22.528;2022-11-06T15:31:25;436.00;2355.20
66831;DHT22;53739;44.224;22.528;2022-11-06T15:34:02;435.90;2355.20
66831;DHT22;53739;44.224;22.528;2022-11-06T15:36:33;435.90;2355.20
66831;DHT22;53739;44.224;22.528;2022-11-06T15:39:20;435.80;2355.20
66831;DHT22;53739;44.224;22.528;2022-11-06T15:41:46;435.80;2355.20
66831;DHT22;53739;44.224;22.528;2022-11-06T15:44:12;435.90;2355.20
66831;DHT22;53739;44.224;22.528;2022-11-06T15:46:52;435.90;2355.20
66831;DHT22;53739;44.224;22.528;2022-11-06T15:49:19;435.80;2355.20
66831;DHT22;53739;44.224;22.528;2022-11-06T15:51:56;435.80;2355.20
66831;DHT22;53739;44.224;22.528;2022-11-06T15:54:34;435.80;2355.20
66831;DHT22;53739;44.224;22.528;2022-11-06T15:57:44;435.80;2355.20
66831;DHT22;53739;44.224;22.528;2022-11-06T16:00:16;435.80;2355.20
66831;DHT22;53739;44.224;22.528;2022-11-06T16:02:51;435.70;2355.20
66831;DHT22;53739;44.224;22.528;2022-11-06T16:05:18;435.70;2355.20
66831;DHT22;53739;44.224;22.528;2022-11-06T16:07:46;435.70;2355.20
66831;DHT22;53739;44.224;22.528;2022-11-06T16:10:17;435.70;2355.20
66831;DHT22;53739;44.224;22.528;2022-11-06T16:12:48;435.70;2355.20
66831;DHT22;53739;44.224;22.528;2022-11-06T16:18:30;435.70;2355.20
66831;DHT22;53739;44.224;22.528;2022-11-06T16:21:08;435.70;2355.20
66831;DHT22;53739;44.224;22.528;2022-11-06T16:26:25;435.70;2355.20
66831;DHT22;53739;44.224;22.528;2022-11-06T16:28:53;435.70;2355.20
66831;DHT22;53739;44.224;22.528;2022-11-06T16:31:26;435.70;2355.20
66831;DHT22;53739;44.224;22.528;2022-11-06T16:34:00;435.70;2355.20
66831;DHT22;53739;44.224;22.528;2022-11-06T16:36:29;435.70;2355.20
66831;DHT22;53739;44.224;22.528;2022-11-06T16:39:46;435.60;2355.20
66831;DHT22;53739;44.224;22.528;2022-11-06T16:42:23;435.70;2355.20
66831;DHT22;53739;44.224;22.528;2022-11-06T16:45:02;435.60;2355.20
66831;DHT22;53739;44.224;22.528;2022-11-06T16:47:29;435.60;2355.20
66831;DHT22;53739;44.224;22.528;2022-11-06T16:49:56;435.60;2355.20
66831;DHT22;53739;44.224;22.528;2022-11-06T16:52:37;435.60;2355.20
66831;DHT22;53739;44.224;22.528;2022-11-06T16:57:43;435.60;2355.20
66831;DHT22;53739;44.224;22.528;2022-11-06T17:02:51;435.50;2355.20
66831;DHT22;53739;44.224;22.528;2022-11-06T17:05:20;435.50;2355.20
66831;DHT22;53739;44.224;22.528;2022-11-06T17:07:47;435.40;2355.20
66831;DHT22;53739;44.224;22.528;2022-11-06T17:12:59;435.50;2355.20
66831;DHT22;53739;44.224;22.528;2022-11-06T17:15:25;435.50;2355.20
66831;DHT22;53739;44.224;22.528;2022-11-06T17:17:50;435.50;2355.20